Impacts TAF Board
For situational awareness. Not to be used for flight planning purposes.
IDs:

KORD - Chicago/O'Hare Intl, IL, US

Issued at 2325 UTC 18 Feb 2019
Updated at 0215 UTC 19 Feb 2019
Potential Impact None Slight Moderate High
Time<<19/15Z 19/16Z 19/17Z 19/18Z 19/19Z 19/20Z 19/21Z 19/22Z 19/23Z 20/00Z 20/01Z 20/02Z 20/03Z>>
Type PRVL PRVL PRVL PRVL PRVL PRVL PRVL PRVL PRVL PRVL PRVL PRVL PRVL
VIS >6 >6 >6 >6 >6 >6 >6 >6 >6 >6 >6 >6 >6
CIG -- -- -- 200 200 200 200 200 200 200 200 100 100
Cover FEW FEW FEW BKN BKN BKN BKN BKN BKN BKN BKN OVC OVC
FltCat VFR VFR VFR VFR VFR VFR VFR VFR VFR VFR VFR VFR VFR
WX -- -- -- -- -- -- -- -- -- -- -- -- --
WDir VRB VRB VRB 110 110 110 110 110 110 110 110 100 100
WSpd 4 4 4 6 6 6 6 6 6 6 6 9 9
WGst -- -- -- -- -- -- -- -- -- -- -- -- --
Raw TAF
KORD 182325Z 1900/2006 35006KT P6SM VCSH BKN040
  FM190100 34005KT P6SM FEW035
  FM191100 VRB04KT P6SM FEW250
  FM191800 11006KT P6SM SCT040 BKN200
  FM200200 10009KT P6SM SCT040 OVC100


METAR Board
Radar Display
Forecast Discussion
For situational awareness. Not to be used for flight planning purposes.